Online Now
Guests 2
Members   0

24/7 FSX Server
IP: 97.80.187.52
@ KATL until 2/22/19



Information and tools for flight simulation use only - NOT for real avaition

File Flight Plans Here

KATL 171352Z 10010KT 2SM BR OVC004 09/08 A2995 RMK AO2 SFC VIS 6 SLP145 T00940078KATL 171404Z 1714/1818 10009KT 6SM BR VCSH OVC005 TEMPO 1714/1716 3SM -RA BR OVC003 FM171800 13010KT 6SM -RA BR OVC006 FM180300 19010KT 4SM -RA BR BKN008 FM180600 32012KT P6SM VCSH BKN008 FM181300 32012G20KT P6SM SCT015 BKN035
Aviation Digital Data Service (ADDS)



Other FSX servers